Share

Ruso, ND

South Prairie, Ward County (KNDSAWYE2) Elev 2000 ft | 48.00 °N, 101.23 °W | Change Station

Current weather conditions updated 2 seconds ago

Clear
Clear
56.7 °F
Feels Like 56.7 °F
N
13.6
Wind Variable Wind from NW
Gusts 18.3 mph
Sunrise 6:46 AM
Sunset 8:39 PM
Moon Waning Gibbous

Tomorrow is forecast to be Much Warmer than today.

Pressure 29.95 in
Visibility 10.0 miles
Clouds Clear
Dew Point 41 °F
Humidity 55%
Rainfall 0.00 in
Snow Depth Not available.
UV 0.0 out of 16
Pollen 10.30 out of 12
Air Quality Not available.
Flu Activity Sporadic
METAR KMOT 192254Z AUTO 28014G19KT 10SM CLR 13/00 A2992 RMK AO2 PK WND 27029/2207 RAB09E18 SLP141 P0000 T01280000

More Conditions Fewer Conditions

Pressure 29.95 in
Visibility 10.0 miles
Clouds Clear
Dew Point 41 °F
Humidity 55%
Rainfall 0.00 in
Snow Depth Not available.
UV 0.0 out of 16
Pollen 10.30 out of 12
Air Quality Not available.
Flu Activity Sporadic
METAR KMOT 192254Z AUTO 28014G19KT 10SM CLR 13/00 A2992 RMK AO2 PK WND 27029/2207 RAB09E18 SLP141 P0000 T01280000

More Conditions Fewer Conditions

10-Day Weather Forecast

Almanac

Astronomy

Apr. 19, 2014 Rise Set
Actual Time 6:46 AM CDT 8:39 PM CDT
Civil Twilight 6:13 AM CDT 9:12 PM CDT
Nautical Twilight 5:33 AM CDT 9:52 PM CDT
Astronomical Twilight 4:48 AM CDT 10:37 PM CDT
Moon 12:34 AM CDT 9:57 AM CDT
Length of Visible Light 14h 58m
Length of Day
13h 52m
Tomorrow will be 3m 16s longer.
Waning Gibbous, 76% of the Moon is Illuminated
Today
Waning Gibbous
Apr 22
Last Quarter
Apr 29
New
May 6
First Quarter
May 14
Full

Today's Extremes

State Highs State Lows

Community

  • Happy Easter!
    Happy Easter!
  • poppy bloom near Mazar-e-Sharif
    poppy bloom near Mazar-e-Sharif
  • Happy Easter WU friends!!!!
    Happy Easter WU friends!!!!
  • Skirting the Horizon
    Skirting the Horizon
  • Piriapolis
    Piriapolis

WunderPhotos

Upload Photos

1,702,962 photos uploaded!

WunderBlogs® & News

Nearby

Snow Depth

Station Depth Elevation
No new snow has been reported.

Coastal Water Temperatures

Place Temperature
No Stations Reporting

Earthquake Activity

City Distance Mag. Time & Date
No recent earthquake activity has been reported nearby.
Minimum magnitude displayed is 2.5.

Nearby Weather Stations

Station Location Temp. Dew Point Humidity Wind Precip. Elev Updated Type
South Prairie, Ward County, Sawyer, ND 56.7 °F 41 °F 55% NW  at  13.6 mph 0.00 in / hr 2000 ft 6:24 PM CDT Rapid Fire

Show More Stations Show Fewer Stations

What do you think?

We're not finished. Please let us know what you like, what you don't like, and what you are still missing.